Terminal Aerodrome Forecast
Issued by NWS Greer, SC

Home | Current Version | Previous Version | Text Only | Print | Product List | Glossary On
Versions: 1 2 3 4 5 6 7 8 9 10 11 12 13 14 15 16 17 18 19 20 21 22
000
FTUS42 KGSP 270520
TAFCLT
TAF
KCLT 270520Z 2706/2806 21003KT P6SM FEW070 SCT250
     FM271700 23006KT P6SM SCT060 SCT200 PROB30 2720/2724 4SM -TSRA
      BKN060CB BKN110
     FM280200 21004KT P6SM BKN070=

USA.gov is the U.S. government's official web portal to all federal, state and local government web resources and services.